sensor_id;sensor_type;location;lat;lon;timestamp;P1;durP1;ratioP1;P2;durP2;ratioP2
58340;SDS011;44149;43.060;0.104;2023-06-04T00:01:05;0.30;;;0.30;;
58340;SDS011;44149;43.060;0.104;2023-06-04T00:03:31;0.20;;;0.20;;
58340;SDS011;44149;43.060;0.104;2023-06-04T00:05:57;0.75;;;0.50;;
58340;SDS011;44149;43.060;0.104;2023-06-04T00:08:24;0.20;;;0.20;;
58340;SDS011;44149;43.060;0.104;2023-06-04T00:10:50;0.73;;;0.73;;
58340;SDS011;44149;43.060;0.104;2023-06-04T00:13:16;0.20;;;0.20;;
58340;SDS011;44149;43.060;0.104;2023-06-04T00:15:42;0.30;;;0.30;;
58340;SDS011;44149;43.060;0.104;2023-06-04T00:18:08;0.65;;;0.65;;
58340;SDS011;44149;43.060;0.104;2023-06-04T00:20:36;0.20;;;0.20;;
58340;SDS011;44149;43.060;0.104;2023-06-04T00:23:02;0.20;;;0.20;;
58340;SDS011;44149;43.060;0.104;2023-06-04T00:25:28;0.52;;;0.52;;
58340;SDS011;44149;43.060;0.104;2023-06-04T00:27:55;0.30;;;0.30;;
58340;SDS011;44149;43.060;0.104;2023-06-04T00:30:21;0.47;;;0.47;;
58340;SDS011;44149;43.060;0.104;2023-06-04T00:32:47;0.20;;;0.20;;
58340;SDS011;44149;43.060;0.104;2023-06-04T00:35:13;0.30;;;0.30;;
58340;SDS011;44149;43.060;0.104;2023-06-04T00:37:39;0.60;;;0.60;;
58340;SDS011;44149;43.060;0.104;2023-06-04T00:40:06;0.68;;;0.68;;
58340;SDS011;44149;43.060;0.104;2023-06-04T00:42:32;0.43;;;0.43;;
58340;SDS011;44149;43.060;0.104;2023-06-04T00:44:58;0.30;;;0.30;;
58340;SDS011;44149;43.060;0.104;2023-06-04T00:47:24;0.30;;;0.30;;
58340;SDS011;44149;43.060;0.104;2023-06-04T00:49:53;0.32;;;0.32;;
58340;SDS011;44149;43.060;0.104;2023-06-04T00:52:19;1.38;;;1.08;;
58340;SDS011;44149;43.060;0.104;2023-06-04T00:54:46;0.32;;;0.32;;
58340;SDS011;44149;43.060;0.104;2023-06-04T00:57:12;0.68;;;0.60;;
58340;SDS011;44149;43.060;0.104;2023-06-04T00:59:38;0.52;;;0.52;;
58340;SDS011;44149;43.060;0.104;2023-06-04T01:02:09;0.20;;;0.20;;
58340;SDS011;44149;43.060;0.104;2023-06-04T01:07:06;0.32;;;0.32;;
58340;SDS011;44149;43.060;0.104;2023-06-04T01:09:34;0.80;;;0.32;;
58340;SDS011;44149;43.060;0.104;2023-06-04T01:12:03;0.20;;;0.20;;
58340;SDS011;44149;43.060;0.104;2023-06-04T01:14:29;0.28;;;0.28;;
58340;SDS011;44149;43.060;0.104;2023-06-04T01:17:02;0.30;;;0.30;;
58340;SDS011;44149;43.060;0.104;2023-06-04T01:19:49;0.57;;;0.52;;
58340;SDS011;44149;43.060;0.104;2023-06-04T01:22:35;0.30;;;0.30;;
58340;SDS011;44149;43.060;0.104;2023-06-04T01:25:02;0.50;;;0.50;;
58340;SDS011;44149;43.060;0.104;2023-06-04T01:27:29;0.30;;;0.30;;
58340;SDS011;44149;43.060;0.104;2023-06-04T01:29:57;0.47;;;0.47;;
58340;SDS011;44149;43.060;0.104;2023-06-04T01:32:23;0.28;;;0.28;;
58340;SDS011;44149;43.060;0.104;2023-06-04T01:34:50;0.20;;;0.20;;
58340;SDS011;44149;43.060;0.104;2023-06-04T01:37:16;0.28;;;0.28;;
58340;SDS011;44149;43.060;0.104;2023-06-04T01:39:43;0.85;;;0.68;;
58340;SDS011;44149;43.060;0.104;2023-06-04T01:42:09;0.30;;;0.30;;
58340;SDS011;44149;43.060;0.104;2023-06-04T01:44:36;0.43;;;0.43;;
58340;SDS011;44149;43.060;0.104;2023-06-04T01:47:02;0.20;;;0.20;;
58340;SDS011;44149;43.060;0.104;2023-06-04T01:49:28;0.22;;;0.22;;
58340;SDS011;44149;43.060;0.104;2023-06-04T01:51:55;0.40;;;0.40;;
58340;SDS011;44149;43.060;0.104;2023-06-04T01:54:21;0.20;;;0.20;;
58340;SDS011;44149;43.060;0.104;2023-06-04T01:56:47;0.45;;;0.30;;
58340;SDS011;44149;43.060;0.104;2023-06-04T01:59:14;0.20;;;0.20;;
58340;SDS011;44149;43.060;0.104;2023-06-04T02:01:41;0.22;;;0.22;;
58340;SDS011;44149;43.060;0.104;2023-06-04T02:04:07;0.25;;;0.25;;
58340;SDS011;44149;43.060;0.104;2023-06-04T02:06:33;0.40;;;0.40;;
58340;SDS011;44149;43.060;0.104;2023-06-04T02:09:02;0.30;;;0.30;;
58340;SDS011;44149;43.060;0.104;2023-06-04T02:11:28;0.20;;;0.20;;
58340;SDS011;44149;43.060;0.104;2023-06-04T02:13:54;0.20;;;0.20;;
58340;SDS011;44149;43.060;0.104;2023-06-04T02:16:21;0.30;;;0.30;;
58340;SDS011;44149;43.060;0.104;2023-06-04T02:18:47;0.40;;;0.32;;
58340;SDS011;44149;43.060;0.104;2023-06-04T02:21:13;0.73;;;0.73;;
58340;SDS011;44149;43.060;0.104;2023-06-04T02:23:39;0.60;;;0.60;;
58340;SDS011;44149;43.060;0.104;2023-06-04T02:26:05;0.30;;;0.30;;
58340;SDS011;44149;43.060;0.104;2023-06-04T02:28:31;0.30;;;0.30;;
58340;SDS011;44149;43.060;0.104;2023-06-04T02:30:58;0.25;;;0.25;;
58340;SDS011;44149;43.060;0.104;2023-06-04T02:33:24;0.43;;;0.43;;
58340;SDS011;44149;43.060;0.104;2023-06-04T02:35:50;1.20;;;0.45;;
58340;SDS011;44149;43.060;0.104;2023-06-04T02:38:16;0.40;;;0.40;;
58340;SDS011;44149;43.060;0.104;2023-06-04T02:40:43;0.20;;;0.20;;
58340;SDS011;44149;43.060;0.104;2023-06-04T02:43:09;0.82;;;0.22;;
58340;SDS011;44149;43.060;0.104;2023-06-04T02:45:35;1.23;;;0.40;;
58340;SDS011;44149;43.060;0.104;2023-06-04T02:48:01;0.50;;;0.50;;
58340;SDS011;44149;43.060;0.104;2023-06-04T02:50:27;0.40;;;0.40;;
58340;SDS011;44149;43.060;0.104;2023-06-04T02:52:53;0.20;;;0.20;;
58340;SDS011;44149;43.060;0.104;2023-06-04T02:55:20;0.50;;;0.50;;
58340;SDS011;44149;43.060;0.104;2023-06-04T02:57:46;0.20;;;0.20;;
58340;SDS011;44149;43.060;0.104;2023-06-04T03:00:13;0.55;;;0.22;;
58340;SDS011;44149;43.060;0.104;2023-06-04T03:02:43;0.57;;;0.57;;
58340;SDS011;44149;43.060;0.104;2023-06-04T03:05:10;0.35;;;0.30;;
58340;SDS011;44149;43.060;0.104;2023-06-04T03:07:37;0.20;;;0.20;;
58340;SDS011;44149;43.060;0.104;2023-06-04T03:10:04;0.30;;;0.30;;
58340;SDS011;44149;43.060;0.104;2023-06-04T03:12:31;0.60;;;0.30;;
58340;SDS011;44149;43.060;0.104;2023-06-04T03:14:57;0.68;;;0.68;;
58340;SDS011;44149;43.060;0.104;2023-06-04T03:17:23;0.30;;;0.30;;
58340;SDS011;44149;43.060;0.104;2023-06-04T03:19:50;0.20;;;0.20;;
58340;SDS011;44149;43.060;0.104;2023-06-04T03:22:16;0.30;;;0.30;;
58340;SDS011;44149;43.060;0.104;2023-06-04T03:24:42;0.38;;;0.38;;
58340;SDS011;44149;43.060;0.104;2023-06-04T03:27:09;0.20;;;0.20;;
58340;SDS011;44149;43.060;0.104;2023-06-04T03:29:36;0.38;;;0.38;;
58340;SDS011;44149;43.060;0.104;2023-06-04T03:32:02;1.10;;;0.50;;
58340;SDS011;44149;43.060;0.104;2023-06-04T03:34:28;0.32;;;0.30;;
58340;SDS011;44149;43.060;0.104;2023-06-04T03:36:56;1.75;;;0.35;;
58340;SDS011;44149;43.060;0.104;2023-06-04T03:39:23;0.30;;;0.30;;
58340;SDS011;44149;43.060;0.104;2023-06-04T03:41:49;0.30;;;0.30;;
58340;SDS011;44149;43.060;0.104;2023-06-04T03:44:16;0.85;;;0.85;;
58340;SDS011;44149;43.060;0.104;2023-06-04T03:46:43;0.80;;;0.80;;
58340;SDS011;44149;43.060;0.104;2023-06-04T03:49:09;0.60;;;0.60;;
58340;SDS011;44149;43.060;0.104;2023-06-04T03:51:36;1.65;;;0.32;;
58340;SDS011;44149;43.060;0.104;2023-06-04T03:54:02;1.00;;;0.40;;
58340;SDS011;44149;43.060;0.104;2023-06-04T03:56:29;1.52;;;1.30;;
58340;SDS011;44149;43.060;0.104;2023-06-04T03:58:55;0.73;;;0.73;;
58340;SDS011;44149;43.060;0.104;2023-06-04T04:01:21;0.20;;;0.20;;
58340;SDS011;44149;43.060;0.104;2023-06-04T04:03:51;0.30;;;0.30;;
58340;SDS011;44149;43.060;0.104;2023-06-04T04:06:17;0.22;;;0.22;;
58340;SDS011;44149;43.060;0.104;2023-06-04T04:08:43;0.20;;;0.20;;
58340;SDS011;44149;43.060;0.104;2023-06-04T04:11:13;0.20;;;0.20;;
58340;SDS011;44149;43.060;0.104;2023-06-04T04:13:39;0.40;;;0.40;;
58340;SDS011;44149;43.060;0.104;2023-06-04T04:16:05;0.30;;;0.30;;
58340;SDS011;44149;43.060;0.104;2023-06-04T04:18:32;0.28;;;0.28;;
58340;SDS011;44149;43.060;0.104;2023-06-04T04:20:59;0.30;;;0.30;;
58340;SDS011;44149;43.060;0.104;2023-06-04T04:23:25;0.65;;;0.65;;
58340;SDS011;44149;43.060;0.104;2023-06-04T04:25:52;0.40;;;0.40;;
58340;SDS011;44149;43.060;0.104;2023-06-04T04:28:19;0.25;;;0.25;;
58340;SDS011;44149;43.060;0.104;2023-06-04T04:30:45;0.30;;;0.30;;
58340;SDS011;44149;43.060;0.104;2023-06-04T04:33:12;0.25;;;0.25;;
58340;SDS011;44149;43.060;0.104;2023-06-04T04:35:41;0.52;;;0.40;;
58340;SDS011;44149;43.060;0.104;2023-06-04T04:38:10;0.40;;;0.40;;
58340;SDS011;44149;43.060;0.104;2023-06-04T04:40:37;0.30;;;0.30;;
58340;SDS011;44149;43.060;0.104;2023-06-04T04:43:03;0.43;;;0.43;;
58340;SDS011;44149;43.060;0.104;2023-06-04T04:45:29;0.20;;;0.20;;
58340;SDS011;44149;43.060;0.104;2023-06-04T04:47:55;0.30;;;0.30;;
58340;SDS011;44149;43.060;0.104;2023-06-04T04:50:21;0.20;;;0.20;;
58340;SDS011;44149;43.060;0.104;2023-06-04T04:52:48;0.20;;;0.20;;
58340;SDS011;44149;43.060;0.104;2023-06-04T04:55:14;0.28;;;0.28;;
58340;SDS011;44149;43.060;0.104;2023-06-04T04:57:40;0.50;;;0.50;;
58340;SDS011;44149;43.060;0.104;2023-06-04T05:00:06;0.30;;;0.30;;
58340;SDS011;44149;43.060;0.104;2023-06-04T05:02:35;0.68;;;0.68;;
58340;SDS011;44149;43.060;0.104;2023-06-04T05:05:02;0.38;;;0.38;;
58340;SDS011;44149;43.060;0.104;2023-06-04T05:07:28;0.30;;;0.30;;
58340;SDS011;44149;43.060;0.104;2023-06-04T05:09:55;0.88;;;0.40;;
58340;SDS011;44149;43.060;0.104;2023-06-04T05:12:21;0.65;;;0.65;;
58340;SDS011;44149;43.060;0.104;2023-06-04T05:14:47;0.20;;;0.20;;
58340;SDS011;44149;43.060;0.104;2023-06-04T05:17:14;0.55;;;0.55;;
58340;SDS011;44149;43.060;0.104;2023-06-04T05:19:41;0.20;;;0.20;;
58340;SDS011;44149;43.060;0.104;2023-06-04T05:22:07;2.28;;;0.40;;
58340;SDS011;44149;43.060;0.104;2023-06-04T05:24:33;0.90;;;0.50;;
58340;SDS011;44149;43.060;0.104;2023-06-04T05:27:00;0.52;;;0.52;;
58340;SDS011;44149;43.060;0.104;2023-06-04T05:29:28;0.52;;;0.52;;
58340;SDS011;44149;43.060;0.104;2023-06-04T05:31:54;0.68;;;0.68;;
58340;SDS011;44149;43.060;0.104;2023-06-04T05:34:21;0.35;;;0.35;;
58340;SDS011;44149;43.060;0.104;2023-06-04T05:36:47;0.35;;;0.35;;
58340;SDS011;44149;43.060;0.104;2023-06-04T05:39:13;0.38;;;0.38;;
58340;SDS011;44149;43.060;0.104;2023-06-04T05:41:39;0.35;;;0.35;;
58340;SDS011;44149;43.060;0.104;2023-06-04T05:44:06;0.55;;;0.55;;
58340;SDS011;44149;43.060;0.104;2023-06-04T05:46:32;0.30;;;0.30;;
58340;SDS011;44149;43.060;0.104;2023-06-04T05:48:58;0.55;;;0.55;;
58340;SDS011;44149;43.060;0.104;2023-06-04T05:51:25;0.73;;;0.73;;
58340;SDS011;44149;43.060;0.104;2023-06-04T05:53:51;0.20;;;0.20;;
58340;SDS011;44149;43.060;0.104;2023-06-04T05:56:17;0.38;;;0.38;;
58340;SDS011;44149;43.060;0.104;2023-06-04T05:58:43;0.57;;;0.55;;
58340;SDS011;44149;43.060;0.104;2023-06-04T06:01:09;0.75;;;0.60;;
58340;SDS011;44149;43.060;0.104;2023-06-04T06:03:36;1.00;;;0.50;;
58340;SDS011;44149;43.060;0.104;2023-06-04T06:06:02;0.40;;;0.40;;
58340;SDS011;44149;43.060;0.104;2023-06-04T06:08:30;0.50;;;0.50;;
58340;SDS011;44149;43.060;0.104;2023-06-04T06:10:56;0.55;;;0.55;;
58340;SDS011;44149;43.060;0.104;2023-06-04T06:13:23;1.08;;;0.98;;
58340;SDS011;44149;43.060;0.104;2023-06-04T06:15:49;0.50;;;0.50;;
58340;SDS011;44149;43.060;0.104;2023-06-04T06:18:15;0.55;;;0.50;;
58340;SDS011;44149;43.060;0.104;2023-06-04T06:20:41;0.43;;;0.43;;
58340;SDS011;44149;43.060;0.104;2023-06-04T06:23:08;0.60;;;0.60;;
58340;SDS011;44149;43.060;0.104;2023-06-04T06:25:34;1.10;;;0.77;;
58340;SDS011;44149;43.060;0.104;2023-06-04T06:28:00;2.05;;;0.57;;
58340;SDS011;44149;43.060;0.104;2023-06-04T06:30:26;1.17;;;0.85;;
58340;SDS011;44149;43.060;0.104;2023-06-04T06:32:53;0.63;;;0.60;;
58340;SDS011;44149;43.060;0.104;2023-06-04T06:35:19;0.38;;;0.38;;
58340;SDS011;44149;43.060;0.104;2023-06-04T06:37:45;0.50;;;0.50;;
58340;SDS011;44149;43.060;0.104;2023-06-04T06:40:11;3.05;;;0.80;;
58340;SDS011;44149;43.060;0.104;2023-06-04T06:42:37;0.43;;;0.43;;
58340;SDS011;44149;43.060;0.104;2023-06-04T06:45:04;0.30;;;0.30;;
58340;SDS011;44149;43.060;0.104;2023-06-04T06:47:30;1.85;;;0.75;;
58340;SDS011;44149;43.060;0.104;2023-06-04T06:49:56;0.68;;;0.68;;
58340;SDS011;44149;43.060;0.104;2023-06-04T06:52:22;0.50;;;0.50;;
58340;SDS011;44149;43.060;0.104;2023-06-04T06:54:49;0.88;;;0.82;;
58340;SDS011;44149;43.060;0.104;2023-06-04T06:57:15;0.52;;;0.52;;
58340;SDS011;44149;43.060;0.104;2023-06-04T06:59:42;0.47;;;0.47;;
58340;SDS011;44149;43.060;0.104;2023-06-04T07:02:08;0.60;;;0.60;;
58340;SDS011;44149;43.060;0.104;2023-06-04T07:04:34;0.73;;;0.73;;
58340;SDS011;44149;43.060;0.104;2023-06-04T07:07:01;0.60;;;0.60;;
58340;SDS011;44149;43.060;0.104;2023-06-04T07:09:28;0.70;;;0.70;;
58340;SDS011;44149;43.060;0.104;2023-06-04T07:11:54;0.45;;;0.45;;
58340;SDS011;44149;43.060;0.104;2023-06-04T07:14:20;0.60;;;0.60;;
58340;SDS011;44149;43.060;0.104;2023-06-04T07:16:46;0.82;;;0.52;;
58340;SDS011;44149;43.060;0.104;2023-06-04T07:19:13;0.52;;;0.52;;
58340;SDS011;44149;43.060;0.104;2023-06-04T07:21:39;0.30;;;0.30;;
58340;SDS011;44149;43.060;0.104;2023-06-04T07:24:05;0.57;;;0.57;;
58340;SDS011;44149;43.060;0.104;2023-06-04T07:26:32;0.40;;;0.40;;
58340;SDS011;44149;43.060;0.104;2023-06-04T07:28:58;0.88;;;0.82;;
58340;SDS011;44149;43.060;0.104;2023-06-04T07:31:24;1.63;;;0.82;;
58340;SDS011;44149;43.060;0.104;2023-06-04T07:33:50;0.30;;;0.30;;
58340;SDS011;44149;43.060;0.104;2023-06-04T07:36:16;0.73;;;0.40;;
58340;SDS011;44149;43.060;0.104;2023-06-04T07:38:43;0.57;;;0.32;;
58340;SDS011;44149;43.060;0.104;2023-06-04T07:41:09;0.43;;;0.43;;
58340;SDS011;44149;43.060;0.104;2023-06-04T07:43:35;0.45;;;0.45;;
58340;SDS011;44149;43.060;0.104;2023-06-04T07:46:02;1.00;;;0.45;;
58340;SDS011;44149;43.060;0.104;2023-06-04T07:48:28;0.45;;;0.45;;
58340;SDS011;44149;43.060;0.104;2023-06-04T07:50:58;0.63;;;0.60;;
58340;SDS011;44149;43.060;0.104;2023-06-04T07:53:24;0.47;;;0.45;;
58340;SDS011;44149;43.060;0.104;2023-06-04T07:55:51;0.50;;;0.50;;
58340;SDS011;44149;43.060;0.104;2023-06-04T07:58:17;0.52;;;0.52;;
58340;SDS011;44149;43.060;0.104;2023-06-04T08:00:43;0.68;;;0.55;;
58340;SDS011;44149;43.060;0.104;2023-06-04T08:03:10;1.23;;;0.52;;
58340;SDS011;44149;43.060;0.104;2023-06-04T08:05:36;0.40;;;0.40;;
58340;SDS011;44149;43.060;0.104;2023-06-04T08:08:02;0.30;;;0.30;;
58340;SDS011;44149;43.060;0.104;2023-06-04T08:10:31;0.95;;;0.70;;
58340;SDS011;44149;43.060;0.104;2023-06-04T08:12:57;0.70;;;0.60;;
58340;SDS011;44149;43.060;0.104;2023-06-04T08:15:24;0.57;;;0.50;;
58340;SDS011;44149;43.060;0.104;2023-06-04T08:17:50;1.02;;;0.60;;
58340;SDS011;44149;43.060;0.104;2023-06-04T08:20:16;9.05;;;0.65;;
58340;SDS011;44149;43.060;0.104;2023-06-04T08:22:42;1.65;;;0.93;;
58340;SDS011;44149;43.060;0.104;2023-06-04T08:25:09;1.27;;;0.55;;
58340;SDS011;44149;43.060;0.104;2023-06-04T08:27:35;2.22;;;1.55;;
58340;SDS011;44149;43.060;0.104;2023-06-04T08:30:01;1.52;;;1.10;;
58340;SDS011;44149;43.060;0.104;2023-06-04T08:32:27;1.45;;;1.05;;
58340;SDS011;44149;43.060;0.104;2023-06-04T08:34:54;0.60;;;0.60;;
58340;SDS011;44149;43.060;0.104;2023-06-04T08:37:20;1.42;;;0.65;;
58340;SDS011;44149;43.060;0.104;2023-06-04T08:39:46;0.60;;;0.60;;
58340;SDS011;44149;43.060;0.104;2023-06-04T08:42:17;2.50;;;0.98;;
58340;SDS011;44149;43.060;0.104;2023-06-04T08:44:46;2.83;;;1.30;;
58340;SDS011;44149;43.060;0.104;2023-06-04T08:47:13;1.17;;;1.00;;
58340;SDS011;44149;43.060;0.104;2023-06-04T08:49:40;2.70;;;1.50;;
58340;SDS011;44149;43.060;0.104;2023-06-04T08:52:09;4.60;;;2.17;;
58340;SDS011;44149;43.060;0.104;2023-06-04T08:54:36;11.10;;;2.33;;
58340;SDS011;44149;43.060;0.104;2023-06-04T08:57:02;4.15;;;2.05;;
58340;SDS011;44149;43.060;0.104;2023-06-04T08:59:29;1.70;;;1.10;;
58340;SDS011;44149;43.060;0.104;2023-06-04T09:01:55;2.78;;;1.35;;
58340;SDS011;44149;43.060;0.104;2023-06-04T09:04:22;6.03;;;1.98;;
58340;SDS011;44149;43.060;0.104;2023-06-04T09:06:48;6.13;;;2.85;;
58340;SDS011;44149;43.060;0.104;2023-06-04T09:09:15;4.75;;;2.00;;
58340;SDS011;44149;43.060;0.104;2023-06-04T09:11:46;3.22;;;1.92;;
58340;SDS011;44149;43.060;0.104;2023-06-04T09:14:15;2.35;;;1.65;;
58340;SDS011;44149;43.060;0.104;2023-06-04T09:16:45;3.42;;;1.70;;
58340;SDS011;44149;43.060;0.104;2023-06-04T09:19:11;3.53;;;1.92;;
58340;SDS011;44149;43.060;0.104;2023-06-04T09:21:54;3.13;;;1.77;;
58340;SDS011;44149;43.060;0.104;2023-06-04T09:24:21;4.07;;;2.03;;
58340;SDS011;44149;43.060;0.104;2023-06-04T09:26:48;3.47;;;2.00;;
58340;SDS011;44149;43.060;0.104;2023-06-04T09:29:15;3.58;;;1.92;;
58340;SDS011;44149;43.060;0.104;2023-06-04T09:31:41;3.28;;;2.22;;
58340;SDS011;44149;43.060;0.104;2023-06-04T09:34:10;2.83;;;2.00;;
58340;SDS011;44149;43.060;0.104;2023-06-04T09:36:36;3.13;;;1.92;;
58340;SDS011;44149;43.060;0.104;2023-06-04T09:39:03;3.47;;;2.38;;
58340;SDS011;44149;43.060;0.104;2023-06-04T09:41:30;5.82;;;2.88;;
58340;SDS011;44149;43.060;0.104;2023-06-04T09:44:02;3.72;;;2.50;;
58340;SDS011;44149;43.060;0.104;2023-06-04T09:46:30;3.30;;;2.28;;
58340;SDS011;44149;43.060;0.104;2023-06-04T09:49:03;3.30;;;2.08;;
58340;SDS011;44149;43.060;0.104;2023-06-04T09:51:30;4.50;;;2.65;;
58340;SDS011;44149;43.060;0.104;2023-06-04T09:54:00;2.92;;;1.95;;
58340;SDS011;44149;43.060;0.104;2023-06-04T09:56:27;4.95;;;1.90;;
58340;SDS011;44149;43.060;0.104;2023-06-04T09:58:53;2.63;;;1.95;;
58340;SDS011;44149;43.060;0.104;2023-06-04T10:01:21;2.78;;;1.90;;
58340;SDS011;44149;43.060;0.104;2023-06-04T10:03:48;2.30;;;1.88;;
58340;SDS011;44149;43.060;0.104;2023-06-04T10:06:15;3.60;;;2.05;;
58340;SDS011;44149;43.060;0.104;2023-06-04T10:08:42;2.88;;;1.80;;
58340;SDS011;44149;43.060;0.104;2023-06-04T10:11:09;3.40;;;2.15;;
58340;SDS011;44149;43.060;0.104;2023-06-04T10:16:06;2.50;;;1.70;;
58340;SDS011;44149;43.060;0.104;2023-06-04T10:18:32;3.80;;;2.13;;
58340;SDS011;44149;43.060;0.104;2023-06-04T10:20:59;5.05;;;2.33;;
58340;SDS011;44149;43.060;0.104;2023-06-04T10:23:25;3.67;;;2.10;;
58340;SDS011;44149;43.060;0.104;2023-06-04T10:25:52;3.28;;;2.05;;
58340;SDS011;44149;43.060;0.104;2023-06-04T10:28:19;3.22;;;2.30;;
58340;SDS011;44149;43.060;0.104;2023-06-04T10:30:46;4.15;;;1.75;;
58340;SDS011;44149;43.060;0.104;2023-06-04T10:33:15;2.90;;;1.90;;
58340;SDS011;44149;43.060;0.104;2023-06-04T10:35:42;3.47;;;2.20;;
58340;SDS011;44149;43.060;0.104;2023-06-04T10:38:11;4.38;;;2.05;;
58340;SDS011;44149;43.060;0.104;2023-06-04T10:40:38;3.53;;;2.03;;
58340;SDS011;44149;43.060;0.104;2023-06-04T10:43:06;3.67;;;2.10;;
58340;SDS011;44149;43.060;0.104;2023-06-04T10:45:32;3.85;;;2.33;;
58340;SDS011;44149;43.060;0.104;2023-06-04T10:48:02;4.13;;;1.70;;
58340;SDS011;44149;43.060;0.104;2023-06-04T10:50:28;3.58;;;2.45;;
58340;SDS011;44149;43.060;0.104;2023-06-04T10:52:55;2.35;;;1.90;;
58340;SDS011;44149;43.060;0.104;2023-06-04T10:55:23;4.57;;;2.28;;
58340;SDS011;44149;43.060;0.104;2023-06-04T11:00:19;3.08;;;2.00;;
58340;SDS011;44149;43.060;0.104;2023-06-04T11:02:53;3.88;;;2.25;;
58340;SDS011;44149;43.060;0.104;2023-06-04T11:05:33;4.90;;;2.28;;
58340;SDS011;44149;43.060;0.104;2023-06-04T11:07:59;1.20;;;1.00;;
58340;SDS011;44149;43.060;0.104;2023-06-04T11:10:34;1.90;;;1.70;;
58340;SDS011;44149;43.060;0.104;2023-06-04T11:13:01;1.75;;;1.20;;
58340;SDS011;44149;43.060;0.104;2023-06-04T11:15:41;1.25;;;1.15;;
58340;SDS011;44149;43.060;0.104;2023-06-04T11:18:13;1.13;;;0.88;;
58340;SDS011;44149;43.060;0.104;2023-06-04T11:20:40;1.65;;;1.55;;
58340;SDS011;44149;43.060;0.104;2023-06-04T11:23:07;1.63;;;0.95;;
58340;SDS011;44149;43.060;0.104;2023-06-04T11:25:33;1.23;;;0.75;;
58340;SDS011;44149;43.060;0.104;2023-06-04T11:28:00;0.73;;;0.73;;
58340;SDS011;44149;43.060;0.104;2023-06-04T11:30:29;1.70;;;1.08;;
58340;SDS011;44149;43.060;0.104;2023-06-04T11:33:05;2.10;;;1.30;;
58340;SDS011;44149;43.060;0.104;2023-06-04T11:35:31;2.20;;;1.13;;
58340;SDS011;44149;43.060;0.104;2023-06-04T11:38:05;2.13;;;1.27;;
58340;SDS011;44149;43.060;0.104;2023-06-04T11:40:31;1.42;;;1.33;;
58340;SDS011;44149;43.060;0.104;2023-06-04T11:42:57;1.40;;;0.75;;
58340;SDS011;44149;43.060;0.104;2023-06-04T11:45:24;1.30;;;0.98;;
58340;SDS011;44149;43.060;0.104;2023-06-04T11:47:52;0.90;;;0.90;;
58340;SDS011;44149;43.060;0.104;2023-06-04T11:50:18;2.00;;;1.05;;
58340;SDS011;44149;43.060;0.104;2023-06-04T11:52:45;1.67;;;1.17;;
58340;SDS011;44149;43.060;0.104;2023-06-04T11:55:11;1.15;;;1.10;;
58340;SDS011;44149;43.060;0.104;2023-06-04T11:57:38;1.17;;;1.08;;
58340;SDS011;44149;43.060;0.104;2023-06-04T12:00:05;1.92;;;1.58;;
58340;SDS011;44149;43.060;0.104;2023-06-04T12:02:38;22.00;;;4.00;;
58340;SDS011;44149;43.060;0.104;2023-06-04T12:05:14;4.60;;;1.83;;
58340;SDS011;44149;43.060;0.104;2023-06-04T12:07:40;3.00;;;2.10;;
58340;SDS011;44149;43.060;0.104;2023-06-04T12:10:10;2.05;;;1.30;;
58340;SDS011;44149;43.060;0.104;2023-06-04T12:12:39;2.53;;;2.05;;
58340;SDS011;44149;43.060;0.104;2023-06-04T12:15:07;12.18;;;1.88;;
58340;SDS011;44149;43.060;0.104;2023-06-04T12:17:48;2.65;;;1.45;;
58340;SDS011;44149;43.060;0.104;2023-06-04T12:20:14;9.75;;;1.73;;
58340;SDS011;44149;43.060;0.104;2023-06-04T12:22:46;6.10;;;1.65;;
58340;SDS011;44149;43.060;0.104;2023-06-04T12:25:23;18.60;;;2.58;;
58340;SDS011;44149;43.060;0.104;2023-06-04T12:27:50;3.67;;;2.33;;
58340;SDS011;44149;43.060;0.104;2023-06-04T12:30:16;3.25;;;2.28;;
58340;SDS011;44149;43.060;0.104;2023-06-04T12:32:43;3.33;;;1.75;;
58340;SDS011;44149;43.060;0.104;2023-06-04T12:35:10;6.60;;;2.08;;
58340;SDS011;44149;43.060;0.104;2023-06-04T12:37:36;3.55;;;1.85;;
58340;SDS011;44149;43.060;0.104;2023-06-04T12:40:03;9.77;;;2.25;;
58340;SDS011;44149;43.060;0.104;2023-06-04T12:42:31;1.30;;;0.80;;
58340;SDS011;44149;43.060;0.104;2023-06-04T12:44:57;2.13;;;1.33;;
58340;SDS011;44149;43.060;0.104;2023-06-04T12:47:23;2.47;;;1.30;;
58340;SDS011;44149;43.060;0.104;2023-06-04T12:49:50;2.45;;;1.23;;
58340;SDS011;44149;43.060;0.104;2023-06-04T12:52:17;1.65;;;1.38;;
58340;SDS011;44149;43.060;0.104;2023-06-04T12:54:43;1.45;;;0.75;;
58340;SDS011;44149;43.060;0.104;2023-06-04T12:57:10;1.02;;;0.95;;
58340;SDS011;44149;43.060;0.104;2023-06-04T12:59:36;0.60;;;0.60;;
58340;SDS011;44149;43.060;0.104;2023-06-04T13:02:02;0.57;;;0.57;;
58340;SDS011;44149;43.060;0.104;2023-06-04T13:04:28;0.28;;;0.28;;
58340;SDS011;44149;43.060;0.104;2023-06-04T13:06:55;0.43;;;0.43;;
58340;SDS011;44149;43.060;0.104;2023-06-04T13:09:24;0.52;;;0.30;;
58340;SDS011;44149;43.060;0.104;2023-06-04T13:11:50;0.20;;;0.20;;
58340;SDS011;44149;43.060;0.104;2023-06-04T13:14:17;0.20;;;0.20;;
58340;SDS011;44149;43.060;0.104;2023-06-04T13:16:43;0.30;;;0.30;;
58340;SDS011;44149;43.060;0.104;2023-06-04T13:19:13;0.47;;;0.47;;
58340;SDS011;44149;43.060;0.104;2023-06-04T13:21:40;0.22;;;0.22;;
58340;SDS011;44149;43.060;0.104;2023-06-04T13:24:06;0.20;;;0.20;;
58340;SDS011;44149;43.060;0.104;2023-06-04T13:26:32;0.50;;;0.50;;
58340;SDS011;44149;43.060;0.104;2023-06-04T13:28:59;0.35;;;0.35;;
58340;SDS011;44149;43.060;0.104;2023-06-04T13:31:25;0.30;;;0.30;;
58340;SDS011;44149;43.060;0.104;2023-06-04T13:33:51;0.30;;;0.30;;
58340;SDS011;44149;43.060;0.104;2023-06-04T13:36:17;0.45;;;0.45;;
58340;SDS011;44149;43.060;0.104;2023-06-04T13:38:43;0.20;;;0.20;;
58340;SDS011;44149;43.060;0.104;2023-06-04T13:41:10;0.20;;;0.20;;
58340;SDS011;44149;43.060;0.104;2023-06-04T13:43:36;0.50;;;0.50;;
58340;SDS011;44149;43.060;0.104;2023-06-04T13:46:03;0.20;;;0.20;;
58340;SDS011;44149;43.060;0.104;2023-06-04T13:48:30;0.45;;;0.35;;
58340;SDS011;44149;43.060;0.104;2023-06-04T13:50:56;0.52;;;0.20;;
58340;SDS011;44149;43.060;0.104;2023-06-04T13:53:22;0.20;;;0.20;;
58340;SDS011;44149;43.060;0.104;2023-06-04T13:55:49;0.20;;;0.20;;
58340;SDS011;44149;43.060;0.104;2023-06-04T14:00:48;0.40;;;0.40;;
58340;SDS011;44149;43.060;0.104;2023-06-04T14:03:14;0.25;;;0.25;;
58340;SDS011;44149;43.060;0.104;2023-06-04T14:05:41;0.50;;;0.50;;
58340;SDS011;44149;43.060;0.104;2023-06-04T14:08:07;0.20;;;0.20;;
58340;SDS011;44149;43.060;0.104;2023-06-04T14:10:33;0.30;;;0.30;;
58340;SDS011;44149;43.060;0.104;2023-06-04T14:13:01;0.45;;;0.45;;
58340;SDS011;44149;43.060;0.104;2023-06-04T14:15:28;0.30;;;0.30;;
58340;SDS011;44149;43.060;0.104;2023-06-04T14:17:54;0.22;;;0.22;;
58340;SDS011;44149;43.060;0.104;2023-06-04T14:20:20;0.47;;;0.47;;
58340;SDS011;44149;43.060;0.104;2023-06-04T14:22:46;0.20;;;0.20;;
58340;SDS011;44149;43.060;0.104;2023-06-04T14:25:13;0.88;;;0.40;;
58340;SDS011;44149;43.060;0.104;2023-06-04T14:27:39;0.40;;;0.40;;
58340;SDS011;44149;43.060;0.104;2023-06-04T14:30:05;0.30;;;0.30;;
58340;SDS011;44149;43.060;0.104;2023-06-04T14:32:32;0.63;;;0.55;;
58340;SDS011;44149;43.060;0.104;2023-06-04T14:34:59;1.02;;;0.85;;
58340;SDS011;44149;43.060;0.104;2023-06-04T14:37:25;1.23;;;0.82;;
58340;SDS011;44149;43.060;0.104;2023-06-04T14:39:51;1.10;;;0.68;;
58340;SDS011;44149;43.060;0.104;2023-06-04T14:42:17;1.30;;;0.85;;
58340;SDS011;44149;43.060;0.104;2023-06-04T14:44:44;0.95;;;0.75;;
58340;SDS011;44149;43.060;0.104;2023-06-04T14:47:11;1.20;;;1.08;;
58340;SDS011;44149;43.060;0.104;2023-06-04T14:49:37;0.70;;;0.70;;
58340;SDS011;44149;43.060;0.104;2023-06-04T14:52:03;0.43;;;0.43;;
58340;SDS011;44149;43.060;0.104;2023-06-04T14:54:29;1.00;;;0.63;;
58340;SDS011;44149;43.060;0.104;2023-06-04T14:56:56;0.20;;;0.20;;